createdAt,value
2022-08-04T00:01:09.192Z,97518.75
2022-08-04T00:04:00.793Z,97518.69
2022-08-04T00:07:09.367Z,97505.59
2022-08-04T00:10:01.664Z,97518.34
2022-08-04T00:12:36.591Z,97517.06
2022-08-04T00:15:10.645Z,97517.47
2022-08-04T00:17:49.411Z,97513.38
2022-08-04T00:20:19.950Z,97510.06
2022-08-04T00:22:48.950Z,97518.56
2022-08-04T00:25:16.346Z,97521.59
2022-08-04T00:27:44.013Z,97528.25
2022-08-04T00:30:13.990Z,97525.13
2022-08-04T00:32:42.002Z,97521.22
2022-08-04T00:35:15.111Z,97528.72
2022-08-04T00:37:47.543Z,97530.06
2022-08-04T00:40:29.040Z,97529.44
2022-08-04T00:43:29.727Z,97528.16
2022-08-04T00:46:28.722Z,97524.22
2022-08-04T00:49:32.860Z,97521.28
2022-08-04T00:52:32.425Z,97518.41
2022-08-04T00:55:30.034Z,97522.22
2022-08-04T00:58:23.184Z,97527.03
2022-08-04T01:01:04.633Z,97524.75
2022-08-04T01:04:03.811Z,97533.06
2022-08-04T01:07:38.382Z,97527.50
2022-08-04T01:10:24.210Z,97532.13
2022-08-04T01:13:34.445Z,97528.59
2022-08-04T01:16:07.498Z,97530.59
2022-08-04T01:19:00.889Z,97537.41
2022-08-04T01:21:30.534Z,97528.84
2022-08-04T01:24:42.800Z,97534.66
2022-08-04T01:27:24.734Z,97542.91
2022-08-04T01:29:58.541Z,97536.19
2022-08-04T01:32:37.642Z,97540.84
2022-08-04T01:35:21.638Z,97534.91
2022-08-04T01:38:24.441Z,97537.44
2022-08-04T01:41:00.435Z,97530.53
2022-08-04T01:43:30.187Z,97533.34
2022-08-04T01:46:04.278Z,97539.81
2022-08-04T01:48:32.655Z,97536.06
2022-08-04T01:51:06.979Z,97538.88
2022-08-04T01:53:37.903Z,97539.22
2022-08-04T01:56:07.821Z,97543.84
2022-08-04T01:58:38.035Z,97535.47
2022-08-04T02:01:09.145Z,97537.63
2022-08-04T02:04:18.606Z,97536.16
2022-08-04T02:07:00.795Z,97537.34
2022-08-04T02:09:54.288Z,97542.16
2022-08-04T02:12:56.370Z,97542.69
2022-08-04T02:16:32.692Z,97539.28
2022-08-04T02:19:35.169Z,97539.97
2022-08-04T02:22:15.833Z,97544.59
2022-08-04T02:24:58.693Z,97544.97
2022-08-04T02:28:00.335Z,97535.59
2022-08-04T02:30:39.005Z,97537.09
2022-08-04T02:33:13.271Z,97537.63
2022-08-04T02:35:45.934Z,97534.69
2022-08-04T02:38:39.911Z,97533.38
2022-08-04T02:41:10.957Z,97537.19
2022-08-04T02:43:51.669Z,97526.84
2022-08-04T02:46:21.535Z,97528.81
2022-08-04T02:48:52.866Z,97522.91
2022-08-04T02:51:29.564Z,97528.69
2022-08-04T02:53:59.842Z,97527.41
2022-08-04T02:56:31.777Z,97524.28
2022-08-04T02:59:04.465Z,97525.47
2022-08-04T03:01:33.115Z,97525.94
2022-08-04T03:04:24.499Z,97524.47
2022-08-04T03:07:44.180Z,97532.09
2022-08-04T03:10:13.590Z,97528.63
2022-08-04T03:13:27.266Z,97527.13
2022-08-04T03:16:36.684Z,97531.75
2022-08-04T03:19:36.388Z,97528.66
2022-08-04T03:23:06.306Z,97532.63
2022-08-04T03:26:13.847Z,97528.03
2022-08-04T03:29:08.467Z,97520.84
2022-08-04T03:32:12.663Z,97532.53
2022-08-04T03:35:00.493Z,97529.91
2022-08-04T03:38:24.622Z,97533.03
2022-08-04T03:41:55.025Z,97536.81
2022-08-04T03:44:36.466Z,97531.91
2022-08-04T03:47:42.167Z,97529.44
2022-08-04T03:50:45.302Z,97530.44
2022-08-04T03:53:49.155Z,97522.69
2022-08-04T03:56:27.846Z,97529.13
2022-08-04T03:59:39.346Z,97530.94
2022-08-04T04:03:04.990Z,97530.28
2022-08-04T04:06:18.760Z,97533.91
2022-08-04T04:09:03.330Z,97530.63
2022-08-04T04:12:08.058Z,97527.00
2022-08-04T04:14:51.695Z,97536.72
2022-08-04T04:17:24.206Z,97538.34
2022-08-04T04:20:09.991Z,97539.00
2022-08-04T04:23:00.120Z,97537.34
2022-08-04T04:25:40.923Z,97534.72
2022-08-04T04:28:44.445Z,97540.47
2022-08-04T04:31:47.294Z,97542.28
2022-08-04T04:34:55.891Z,97543.09
2022-08-04T04:37:48.789Z,97539.97
2022-08-04T04:40:48.703Z,97534.53
2022-08-04T04:43:50.847Z,97541.09
2022-08-04T04:46:40.973Z,97536.97
2022-08-04T04:49:37.466Z,97547.47
2022-08-04T04:52:40.125Z,97544.34
2022-08-04T04:55:21.498Z,97551.19
2022-08-04T04:57:56.502Z,97553.16
2022-08-04T05:00:30.950Z,97542.56
2022-08-04T05:03:48.882Z,97541.41
2022-08-04T05:07:09.904Z,97546.28
2022-08-04T05:09:57.359Z,97548.53
2022-08-04T05:14:38.962Z,97550.59
2022-08-04T05:16:16.801Z,97542.09
2022-08-04T05:18:53.851Z,97548.13
2022-08-04T05:21:38.031Z,97552.81
2022-08-04T05:24:10.419Z,97549.78
2022-08-04T05:26:50.236Z,97556.28
2022-08-04T05:29:30.892Z,97561.13
2022-08-04T05:32:03.048Z,97561.53
2022-08-04T05:34:39.177Z,97564.72
2022-08-04T05:37:17.297Z,97566.13
2022-08-04T05:40:03.939Z,97564.00
2022-08-04T05:42:34.813Z,97558.47
2022-08-04T05:45:03.921Z,97566.16
2022-08-04T05:47:33.078Z,97563.06
2022-08-04T05:50:02.545Z,97563.97
2022-08-04T05:52:32.845Z,97564.50
2022-08-04T05:55:02.113Z,97555.28
2022-08-04T05:57:30.654Z,97551.34
2022-08-04T06:00:07.080Z,97555.59
2022-08-04T06:02:50.894Z,97556.22
2022-08-04T06:05:18.954Z,97562.94
2022-08-04T06:08:04.470Z,97551.06
2022-08-04T06:10:39.758Z,97562.91
2022-08-04T06:13:47.714Z,97559.88
2022-08-04T06:16:01.874Z,97559.69
2022-08-04T06:19:56.103Z,97561.47
2022-08-04T06:21:23.445Z,97554.09
2022-08-04T06:24:00.736Z,97554.38
2022-08-04T06:26:35.975Z,97555.53
2022-08-04T06:29:05.003Z,97549.84
2022-08-04T06:32:27.960Z,97554.56
2022-08-04T06:34:32.667Z,97560.31
2022-08-04T06:37:00.387Z,97565.25
2022-08-04T06:39:30.470Z,97559.06
2022-08-04T06:42:22.604Z,97564.16
2022-08-04T06:44:50.283Z,97558.19
2022-08-04T06:47:21.190Z,97561.41
2022-08-04T06:51:23.377Z,97556.84
2022-08-04T06:52:39.964Z,97562.91
2022-08-04T06:55:08.721Z,97569.41
2022-08-04T06:57:37.394Z,97565.03
2022-08-04T07:00:11.476Z,97570.44
2022-08-04T07:02:57.854Z,97561.72
2022-08-04T07:05:25.213Z,97570.25
2022-08-04T07:07:56.424Z,97559.25
2022-08-04T07:10:28.153Z,97556.81
2022-08-04T07:13:01.450Z,97557.50
2022-08-04T07:15:29.629Z,97556.59
2022-08-04T07:18:00.033Z,97559.81
2022-08-04T07:20:33.824Z,97547.34
2022-08-04T07:23:07.778Z,97551.13
2022-08-04T07:26:00.387Z,97555.28
2022-08-04T07:28:30.361Z,97555.50
2022-08-04T07:30:58.734Z,97547.91
2022-08-04T07:33:26.334Z,97542.75
2022-08-04T07:36:05.818Z,97545.81
2022-08-04T07:38:48.788Z,97539.50
2022-08-04T07:41:42.526Z,97544.91
2022-08-04T07:44:14.417Z,97544.31
2022-08-04T07:46:45.653Z,97543.47
2022-08-04T07:49:13.316Z,97546.47
2022-08-04T07:52:02.111Z,97539.25
2022-08-04T07:54:29.813Z,97538.28
2022-08-04T07:56:57.443Z,97538.31
2022-08-04T07:59:24.740Z,97538.94
2022-08-04T08:01:53.010Z,97541.94
2022-08-04T08:04:22.385Z,97527.09
2022-08-04T08:06:50.964Z,97529.53
2022-08-04T08:09:21.140Z,97529.22
2022-08-04T08:12:36.284Z,97530.22
2022-08-04T08:14:38.802Z,97524.00
2022-08-04T08:17:06.213Z,97533.13
2022-08-04T08:19:34.783Z,97521.59
2022-08-04T08:22:03.145Z,97522.66
2022-08-04T08:24:34.951Z,97515.91
2022-08-04T08:27:06.921Z,97527.13
2022-08-04T08:29:35.886Z,97524.66
2022-08-04T08:32:08.574Z,97510.63
2022-08-04T08:34:38.508Z,97508.88
2022-08-04T08:37:23.617Z,97511.72
2022-08-04T08:40:14.596Z,97513.78
2022-08-04T08:44:06.105Z,97513.56
2022-08-04T08:46:49.450Z,97508.44
2022-08-04T08:50:02.564Z,97509.69
2022-08-04T08:53:05.861Z,97512.19
2022-08-04T08:56:12.650Z,97517.38
2022-08-04T08:59:06.364Z,97519.91
2022-08-04T09:02:21.774Z,97516.53
2022-08-04T09:05:06.870Z,97505.88
2022-08-04T09:07:54.399Z,97500.56
2022-08-04T09:10:33.810Z,97501.41
2022-08-04T09:13:24.385Z,97494.44
2022-08-04T09:16:12.782Z,97487.50
2022-08-04T09:18:59.590Z,97496.69
2022-08-04T09:21:36.303Z,97497.00
2022-08-04T09:24:35.800Z,97497.03
2022-08-04T09:27:19.821Z,97489.09
2022-08-04T09:29:58.138Z,97485.41
2022-08-04T09:32:33.088Z,97485.75
2022-08-04T09:35:33.403Z,97490.41
2022-08-04T09:38:46.193Z,97490.69
2022-08-04T09:41:52.574Z,97494.09
2022-08-04T09:44:53.108Z,97488.22
2022-08-04T09:47:51.947Z,97487.19
2022-08-04T09:50:40.946Z,97484.50
2022-08-04T09:53:49.457Z,97491.03
2022-08-04T09:56:38.173Z,97488.91
2022-08-04T09:59:20.310Z,97486.81
2022-08-04T10:01:59.003Z,97491.13
2022-08-04T10:04:32.228Z,97484.69
2022-08-04T10:07:35.940Z,97475.53
2022-08-04T10:10:34.140Z,97469.06
2022-08-04T10:13:15.819Z,97469.63
2022-08-04T10:16:17.756Z,97467.97
2022-08-04T10:19:07.713Z,97468.78
2022-08-04T10:22:28.620Z,97466.91
2022-08-04T10:25:42.590Z,97456.38
2022-08-04T10:28:23.378Z,97452.59
2022-08-04T10:30:59.205Z,97452.84
2022-08-04T10:33:44.947Z,97432.53
2022-08-04T10:36:17.845Z,97446.81
2022-08-04T10:39:03.233Z,97440.88
2022-08-04T10:41:52.139Z,97444.88
2022-08-04T10:44:49.215Z,97441.38
2022-08-04T10:47:26.246Z,97431.44
2022-08-04T10:50:01.197Z,97434.09
2022-08-04T10:52:56.906Z,97429.50
2022-08-04T10:56:05.555Z,97431.69
2022-08-04T10:58:48.154Z,97428.41
2022-08-04T11:02:00.862Z,97425.59
2022-08-04T11:04:31.490Z,97418.16
2022-08-04T11:07:00.576Z,97423.84
2022-08-04T11:09:30.228Z,97415.75
2022-08-04T11:12:07.002Z,97410.41
2022-08-04T11:14:43.498Z,97413.56
2022-08-04T11:17:26.117Z,97425.59
2022-08-04T11:20:35.350Z,97409.88
2022-08-04T11:23:13.786Z,97406.34
2022-08-04T11:26:07.696Z,97417.84
2022-08-04T11:29:09.270Z,97418.47
2022-08-04T11:31:41.469Z,97416.97
2022-08-04T11:34:24.121Z,97411.19
2022-08-04T11:37:18.775Z,97412.47
2022-08-04T11:39:53.827Z,97402.44
2022-08-04T11:42:38.752Z,97413.44
2022-08-04T11:45:16.595Z,97412.69
2022-08-04T11:48:11.357Z,97414.28
2022-08-04T11:50:45.034Z,97402.59
2022-08-04T11:53:19.670Z,97392.22
2022-08-04T11:56:09.313Z,97398.31
2022-08-04T11:58:38.167Z,97399.16
2022-08-04T12:01:42.001Z,97394.59
2022-08-04T12:04:42.008Z,97399.97
2022-08-04T12:07:34.464Z,97401.97
2022-08-04T12:10:37.842Z,97391.75
2022-08-04T12:13:40.719Z,97393.97
2022-08-04T12:16:41.064Z,97387.47
2022-08-04T12:19:21.510Z,97386.03
2022-08-04T12:21:59.915Z,97384.56
2022-08-04T12:24:42.905Z,97386.31
2022-08-04T12:27:30.532Z,97385.59
2022-08-04T12:31:00.602Z,97384.63
2022-08-04T12:33:18.009Z,97370.13
2022-08-04T12:36:21.330Z,97362.94
2022-08-04T12:39:14.024Z,97366.53
2022-08-04T12:42:06.143Z,97367.56
2022-08-04T12:44:40.266Z,97360.41
2022-08-04T12:47:27.842Z,97362.25
2022-08-04T12:50:03.366Z,97351.63
2022-08-04T12:53:04.383Z,97356.09
2022-08-04T12:55:35.332Z,97352.19
2022-08-04T12:58:11.611Z,97355.72
2022-08-04T13:00:41.801Z,97349.56
2022-08-04T13:03:14.120Z,97345.53
2022-08-04T13:05:42.755Z,97349.41
2022-08-04T13:08:12.608Z,97345.50
2022-08-04T13:10:46.799Z,97330.09
2022-08-04T13:13:36.604Z,97331.38
2022-08-04T13:16:13.143Z,97337.00
2022-08-04T13:18:49.711Z,97353.41
2022-08-04T13:21:23.143Z,97342.38
2022-08-04T13:24:21.345Z,97330.41
2022-08-04T13:27:10.621Z,97329.13
2022-08-04T13:30:00.536Z,97324.81
2022-08-04T13:32:32.095Z,97314.31
2022-08-04T13:35:02.256Z,97312.78
2022-08-04T13:37:36.338Z,97303.97
2022-08-04T13:40:11.695Z,97301.19
2022-08-04T13:42:41.167Z,97303.19
2022-08-04T13:45:09.956Z,97309.13
2022-08-04T13:47:40.466Z,97304.78
2022-08-04T13:50:20.395Z,97295.50
2022-08-04T13:52:51.262Z,97301.94
2022-08-04T13:55:34.123Z,97300.66
2022-08-04T13:58:21.368Z,97290.13
2022-08-04T14:01:07.582Z,97298.00
2022-08-04T14:03:53.631Z,97293.81
2022-08-04T14:06:57.087Z,97296.53
2022-08-04T14:09:35.549Z,97295.28
2022-08-04T14:12:38.563Z,97284.41
2022-08-04T14:16:01.656Z,97281.00
2022-08-04T14:18:23.773Z,97282.69
2022-08-04T14:21:11.810Z,97274.94
2022-08-04T14:23:53.837Z,97280.44
2022-08-04T14:26:31.290Z,97272.94
2022-08-04T14:29:26.424Z,97270.38
2022-08-04T14:32:04.278Z,97270.31
2022-08-04T14:34:41.475Z,97291.78
2022-08-04T14:37:17.699Z,97282.06
2022-08-04T14:40:17.404Z,97276.69
2022-08-04T14:42:55.024Z,97282.88
2022-08-04T14:45:37.385Z,97287.78
2022-08-04T14:48:13.356Z,97244.06
2022-08-04T14:50:43.922Z,97283.09
2022-08-04T14:53:17.679Z,97286.03
2022-08-04T14:55:54.710Z,97285.56
2022-08-04T14:58:37.348Z,97288.91
2022-08-04T15:01:12.056Z,97285.94
2022-08-04T15:03:49.830Z,97280.44
2022-08-04T15:06:22.287Z,97281.78
2022-08-04T15:08:52.745Z,97271.09
2022-08-04T15:11:23.647Z,97263.47
2022-08-04T15:13:52.973Z,97267.59
2022-08-04T15:16:22.778Z,97265.69
2022-08-04T15:18:50.984Z,97271.00
2022-08-04T15:21:22.158Z,97265.53
2022-08-04T15:23:50.883Z,97256.81
2022-08-04T15:26:32.990Z,97257.22
2022-08-04T15:29:18.888Z,97268.13
2022-08-04T15:32:07.330Z,97254.44
2022-08-04T15:34:50.723Z,97256.25
2022-08-04T15:37:49.327Z,97247.66
2022-08-04T15:40:32.881Z,97238.66
2022-08-04T15:43:43.349Z,97227.28
2022-08-04T15:46:42.462Z,97230.72
2022-08-04T15:49:24.917Z,97223.03
2022-08-04T15:52:12.173Z,97215.06
2022-08-04T15:54:39.856Z,97207.91
2022-08-04T15:57:10.570Z,97216.44
2022-08-04T16:00:11.221Z,97217.19
2022-08-04T16:02:43.592Z,97204.16
2022-08-04T16:05:17.272Z,97210.06
2022-08-04T16:08:09.767Z,97209.59
2022-08-04T16:10:46.629Z,97210.97
2022-08-04T16:13:16.969Z,97217.56
2022-08-04T16:15:54.902Z,97205.66
2022-08-04T16:18:30.710Z,97206.59
2022-08-04T16:21:03.516Z,97208.72
2022-08-04T16:23:54.381Z,97214.53
2022-08-04T16:26:38.190Z,97215.59
2022-08-04T16:29:32.320Z,97204.41
2022-08-04T16:32:04.979Z,97201.88
2022-08-04T16:34:50.455Z,97201.16
2022-08-04T16:37:20.604Z,97213.75
2022-08-04T16:39:51.969Z,97203.31
2022-08-04T16:42:27.865Z,97197.44
2022-08-04T16:45:13.532Z,97191.81
2022-08-04T16:47:49.585Z,97184.59
2022-08-04T16:50:22.420Z,97187.94
2022-08-04T16:52:54.036Z,97187.59
2022-08-04T16:55:24.869Z,97197.78
2022-08-04T16:57:55.883Z,97192.81
2022-08-04T17:00:32.468Z,97194.59
2022-08-04T17:03:06.861Z,97191.22
2022-08-04T17:05:39.416Z,97184.31
2022-08-04T17:10:56.153Z,97181.03
2022-08-04T17:14:04.286Z,97185.19
2022-08-04T17:16:20.868Z,97186.72
2022-08-04T17:18:51.544Z,97181.97
2022-08-04T17:21:31.518Z,97176.75
2022-08-04T17:24:15.997Z,97169.91
2022-08-04T17:26:54.527Z,97168.75
2022-08-04T17:29:42.945Z,97166.44
2022-08-04T17:32:20.910Z,97161.97
2022-08-04T17:34:51.103Z,97162.56
2022-08-04T17:37:38.308Z,97161.03
2022-08-04T17:40:18.589Z,97163.31
2022-08-04T17:44:04.720Z,97156.97
2022-08-04T17:46:28.441Z,97162.75
2022-08-04T17:49:12.159Z,97156.38
2022-08-04T17:52:05.706Z,97159.16
2022-08-04T17:54:40.326Z,97155.44
2022-08-04T18:00:07.809Z,97162.88
2022-08-04T18:02:54.477Z,97162.91
2022-08-04T18:05:54.116Z,97165.66
2022-08-04T18:08:45.940Z,97168.34
2022-08-04T18:11:04.783Z,97163.28
2022-08-04T18:13:42.710Z,97170.63
2022-08-04T18:16:22.326Z,97165.25
2022-08-04T18:19:18.873Z,97159.88
2022-08-04T18:21:59.690Z,97172.03
2022-08-04T18:24:56.070Z,97169.09
2022-08-04T18:27:25.099Z,97161.50
2022-08-04T18:30:32.479Z,97163.66
2022-08-04T18:33:04.451Z,97177.69
2022-08-04T18:36:34.366Z,97174.91
2022-08-04T18:38:22.751Z,97180.75
2022-08-04T18:40:54.245Z,97175.84
2022-08-04T18:46:14.667Z,97185.09
2022-08-04T18:48:42.286Z,97185.53
2022-08-04T18:51:23.734Z,97183.81
2022-08-04T18:53:54.915Z,97193.34
2022-08-04T18:56:29.800Z,97187.56
2022-08-04T18:59:01.313Z,97193.06
2022-08-04T19:01:30.196Z,97195.59
2022-08-04T19:04:33.118Z,97202.66
2022-08-04T19:09:51.415Z,97202.88
2022-08-04T19:12:26.300Z,97208.63
2022-08-04T19:15:08.361Z,97203.63
2022-08-04T19:17:55.041Z,97206.66
2022-08-04T19:20:26.743Z,97211.56
2022-08-04T19:24:30.648Z,97211.91
2022-08-04T19:26:01.635Z,97210.06
2022-08-04T19:28:35.081Z,97213.34
2022-08-04T19:31:07.889Z,97213.34
2022-08-04T19:33:58.590Z,97234.63
2022-08-04T19:36:27.724Z,97230.34
2022-08-04T19:42:04.338Z,97235.59
2022-08-04T19:44:31.280Z,97231.16
2022-08-04T19:47:00.805Z,97237.69
2022-08-04T19:50:05.281Z,97234.25
2022-08-04T19:52:33.362Z,97243.91
2022-08-04T19:55:10.542Z,97236.50
2022-08-04T19:57:46.008Z,97245.38
2022-08-04T20:00:14.561Z,97242.50
2022-08-04T20:02:42.047Z,97243.44
2022-08-04T20:05:09.531Z,97247.53
2022-08-04T20:07:36.833Z,97255.06
2022-08-04T20:10:07.882Z,97247.41
2022-08-04T20:15:26.920Z,97248.34
2022-08-04T20:18:08.233Z,97249.28
2022-08-04T20:20:40.438Z,97255.81
2022-08-04T20:23:07.265Z,97248.94
2022-08-04T20:25:38.890Z,97257.31
2022-08-04T20:28:09.062Z,97250.41
2022-08-04T20:30:53.287Z,97249.94
2022-08-04T20:33:21.861Z,97254.81
2022-08-04T20:36:05.179Z,97251.66
2022-08-04T20:38:34.282Z,97249.09
2022-08-04T20:41:02.163Z,97254.31
2022-08-04T20:43:31.242Z,97264.03
2022-08-04T20:45:59.309Z,97258.78
2022-08-04T20:48:33.847Z,97252.16
2022-08-04T20:51:00.801Z,97248.50
2022-08-04T20:53:46.865Z,97267.06
2022-08-04T20:56:19.286Z,97261.22
2022-08-04T20:58:59.502Z,97262.38
2022-08-04T21:01:30.047Z,97258.16
2022-08-04T21:04:27.773Z,97261.69
2022-08-04T21:06:57.447Z,97267.34
2022-08-04T21:09:26.711Z,97264.19
2022-08-04T21:12:07.442Z,97250.91
2022-08-04T21:14:36.105Z,97256.88
2022-08-04T21:17:03.995Z,97260.47
2022-08-04T21:19:36.712Z,97262.16
2022-08-04T21:22:10.506Z,97268.38
2022-08-04T21:24:38.623Z,97263.34
2022-08-04T21:27:07.077Z,97259.94
2022-08-04T21:29:36.928Z,97269.84
2022-08-04T21:32:07.788Z,97265.19
2022-08-04T21:34:39.711Z,97262.16
2022-08-04T21:37:10.189Z,97260.94
2022-08-04T21:39:50.717Z,97258.56
2022-08-04T21:42:29.109Z,97258.59
2022-08-04T21:44:57.835Z,97267.03
2022-08-04T21:47:24.741Z,97263.38
2022-08-04T21:49:56.659Z,97266.94
2022-08-04T21:52:24.851Z,97269.66
2022-08-04T21:54:54.784Z,97262.31
2022-08-04T21:57:24.816Z,97270.97
2022-08-04T21:59:52.815Z,97270.19
2022-08-04T22:02:19.815Z,97277.19
2022-08-04T22:04:48.454Z,97264.34
2022-08-04T22:07:20.427Z,97273.75
2022-08-04T22:10:00.262Z,97262.16
2022-08-04T22:12:29.944Z,97272.56
2022-08-04T22:14:59.573Z,97270.56
2022-08-04T22:17:35.153Z,97266.94
2022-08-04T22:20:03.011Z,97268.38
2022-08-04T22:22:34.048Z,97279.66
2022-08-04T22:28:01.048Z,97271.09
2022-08-04T22:30:36.447Z,97273.59
2022-08-04T22:33:08.218Z,97269.97
2022-08-04T22:35:44.321Z,97274.06
2022-08-04T22:38:26.741Z,97267.75
2022-08-04T22:41:11.508Z,97261.22
2022-08-04T22:43:39.734Z,97269.63
2022-08-04T22:46:12.243Z,97259.84
2022-08-04T22:48:43.424Z,97256.59
2022-08-04T22:51:10.737Z,97253.28
2022-08-04T22:53:39.844Z,97252.09
2022-08-04T22:56:10.626Z,97257.84
2022-08-04T22:58:45.074Z,97250.28
2022-08-04T23:01:14.935Z,97258.66
2022-08-04T23:03:51.141Z,97253.78
2022-08-04T23:06:24.662Z,97253.97
2022-08-04T23:08:52.234Z,97258.91
2022-08-04T23:11:19.105Z,97257.88
2022-08-04T23:13:46.146Z,97249.09
2022-08-04T23:16:16.069Z,97252.56
2022-08-04T23:18:45.330Z,97248.88
2022-08-04T23:21:17.099Z,97246.84
2022-08-04T23:24:01.979Z,97246.84
2022-08-04T23:26:31.534Z,97245.81
2022-08-04T23:28:59.350Z,97248.69
2022-08-04T23:31:41.195Z,97245.19
2022-08-04T23:34:15.141Z,97241.72
2022-08-04T23:36:45.548Z,97242.97
2022-08-04T23:39:14.467Z,97250.94
2022-08-04T23:41:54.669Z,97248.72
2022-08-04T23:44:26.643Z,97236.88
2022-08-04T23:47:01.249Z,97245.25
2022-08-04T23:49:43.543Z,97238.75
2022-08-04T23:52:15.854Z,97239.78
2022-08-04T23:54:55.045Z,97242.81
2022-08-04T23:57:22.221Z,97237.72
2022-08-04T23:59:54.348Z,97243.25
